Time;durP1;ratioP1;P1;durP2;ratioP2;P2;SDS_P1;SDS_P2;PMS_P1;PMS_P2;Temp;Humidity;BMP_temperature;BMP_pressure;BME280_temperature;BME280_humidity;BME280_pressure;Samples;Min_cycle;Max_cycle;Signal;HPM_P1;HPM_P2
2021/12/15 00:00:17;;;;;;;25.57;22.77;;;;;;;;;;5055325;28;24420;-56
2021/12/15 00:02:44;;;;;;;27.40;23.58;;;;;;;;;;5054742;28;24788;-56
2021/12/15 00:05:10;;;;;;;25.95;23.10;;;;;;;;;;5048535;28;24487;-56
2021/12/15 00:07:35;;;;;;;24.48;21.00;;;;;;;;;;5061623;28;25108;-57
2021/12/15 00:10:00;;;;;;;25.70;22.50;;;;;;;;;;5058492;28;24411;-56
2021/12/15 00:12:26;;;;;;;25.90;23.10;;;;;;;;;;5058299;28;24521;-56
2021/12/15 00:14:51;;;;;;;25.03;21.80;;;;;;;;;;5058334;28;24418;-56
2021/12/15 00:17:16;;;;;;;24.10;21.50;;;;;;;;;;5059157;28;24427;-56
2021/12/15 00:19:42;;;;;;;24.90;21.90;;;;;;;;;;5052219;28;24923;-55
2021/12/15 00:22:07;;;;;;;24.57;20.70;;;;;;;;;;5041278;28;24470;-55
2021/12/15 00:24:32;;;;;;;24.60;21.03;;;;;;;;;;5062100;28;24955;-55
2021/12/15 00:26:57;;;;;;;24.77;22.03;;;;;;;;;;5063224;28;24427;-56
2021/12/15 00:29:24;;;;;;;23.47;20.50;;;;;;;;;;5056600;28;24412;-55
2021/12/15 00:31:49;;;;;;;25.88;22.38;;;;;;;;;;5045765;28;24408;-56
2021/12/15 00:34:15;;;;;;;25.60;21.45;;;;;;;;;;5050210;28;24437;-56
2021/12/15 00:36:44;;;;;;;23.80;21.13;;;;;;;;;;5053129;28;24425;-56
2021/12/15 00:39:09;;;;;;;24.03;21.43;;;;;;;;;;5059443;28;24977;-56
2021/12/15 00:41:34;;;;;;;24.40;21.20;;;;;;;;;;5057856;28;24952;-56
2021/12/15 00:44:00;;;;;;;22.97;20.03;;;;;;;;;;5054924;28;25279;-56
2021/12/15 00:46:25;;;;;;;22.48;19.95;;;;;;;;;;5057760;28;24419;-56
2021/12/15 00:48:50;;;;;;;25.00;21.17;;;;;;;;;;5051339;28;24476;-56
2021/12/15 00:51:16;;;;;;;23.43;20.93;;;;;;;;;;5061039;28;24419;-56
2021/12/15 00:53:41;;;;;;;22.80;20.27;;;;;;;;;;5063574;28;24970;-56
2021/12/15 00:56:06;;;;;;;23.53;21.03;;;;;;;;;;5052102;28;24924;-56
2021/12/15 00:58:32;;;;;;;23.00;20.37;;;;;;;;;;5061696;28;24418;-56
2021/12/15 01:00:58;;;;;;;22.63;20.00;;;;;;;;;;5056440;28;24502;-56
2021/12/15 01:03:24;;;;;;;23.83;21.23;;;;;;;;;;5051041;28;24944;-56
2021/12/15 01:05:52;;;;;;;24.45;21.63;;;;;;;;;;5050272;28;24449;-56
2021/12/15 01:08:22;;;;;;;23.02;20.48;;;;;;;;;;5060510;28;25023;-56
2021/12/15 01:11:03;;;;;;;23.35;20.80;;;;;;;;;;5059960;28;24411;-56
2021/12/15 01:21:42;;;;;;;23.95;20.70;;;;;;;;;;5055639;28;24437;-56
2021/12/15 01:24:07;;;;;;;21.27;18.97;;;;;;;;;;5059308;28;24506;-56
2021/12/15 01:26:32;;;;;;;22.00;19.60;;;;;;;;;;5054208;28;24744;-56
2021/12/15 01:28:58;;;;;;;25.70;21.10;;;;;;;;;;5056833;28;24952;-56
2021/12/15 01:31:23;;;;;;;23.70;21.07;;;;;;;;;;5050605;28;24415;-56
2021/12/15 01:33:48;;;;;;;24.03;20.20;;;;;;;;;;5057854;28;24492;-56
2021/12/15 01:36:13;;;;;;;23.00;20.50;;;;;;;;;;5057760;28;25404;-56
2021/12/15 01:38:40;;;;;;;22.83;19.67;;;;;;;;;;5057422;28;24417;-56
2021/12/15 01:41:07;;;;;;;22.80;20.40;;;;;;;;;;5049249;28;24426;-56
2021/12/15 01:43:49;;;;;;;26.25;21.92;;;;;;;;;;5057237;28;24485;-56
2021/12/15 01:49:01;;;;;;;23.55;20.40;;;;;;;;;;5055004;28;24453;-55
2021/12/15 01:51:27;;;;;;;25.10;21.55;;;;;;;;;;5054021;28;24827;-56
2021/12/15 01:53:53;;;;;;;24.90;20.50;;;;;;;;;;5061074;28;25025;-57
2021/12/15 01:56:18;;;;;;;24.83;20.77;;;;;;;;;;5061489;28;25261;-56
2021/12/15 01:58:43;;;;;;;22.73;20.33;;;;;;;;;;5049606;28;24510;-56
2021/12/15 02:01:08;;;;;;;24.17;20.90;;;;;;;;;;5042666;28;24921;-56
2021/12/15 02:03:35;;;;;;;23.97;20.90;;;;;;;;;;5055313;28;24408;-56
2021/12/15 02:06:01;;;;;;;23.25;20.75;;;;;;;;;;5053209;28;24522;-56
2021/12/15 02:08:26;;;;;;;23.35;19.88;;;;;;;;;;5052778;28;24415;-56
2021/12/15 02:10:52;;;;;;;22.40;19.97;;;;;;;;;;5056251;28;24454;-56
2021/12/15 02:13:18;;;;;;;21.97;19.20;;;;;;;;;;5060675;28;24411;-56
2021/12/15 02:15:45;;;;;;;22.65;19.70;;;;;;;;;;5054691;28;24411;-58
2021/12/15 02:18:13;;;;;;;24.05;21.45;;;;;;;;;;5053257;28;24469;-57
2021/12/15 02:20:40;;;;;;;22.60;19.77;;;;;;;;;;5053122;28;24463;-56
2021/12/15 02:23:07;;;;;;;23.23;19.77;;;;;;;;;;5060188;28;24938;-57
2021/12/15 02:25:32;;;;;;;22.38;19.98;;;;;;;;;;5062576;28;24446;-57
2021/12/15 02:27:58;;;;;;;22.35;19.67;;;;;;;;;;5052954;28;24769;-57
2021/12/15 02:30:44;;;;;;;23.05;20.50;;;;;;;;;;5049483;28;24411;-57
2021/12/15 02:33:38;;;;;;;25.70;21.95;;;;;;;;;;5055401;28;24415;-55
2021/12/15 02:38:41;;;;;;;23.10;20.40;;;;;;;;;;5054982;28;25151;-56
2021/12/15 02:41:09;;;;;;;23.40;20.80;;;;;;;;;;5056965;28;24426;-55
2021/12/15 02:43:35;;;;;;;23.23;19.97;;;;;;;;;;5054846;28;24416;-55
2021/12/15 02:46:00;;;;;;;23.30;19.60;;;;;;;;;;5054366;28;24444;-56
2021/12/15 02:48:26;;;;;;;22.58;20.08;;;;;;;;;;5053812;28;24418;-56
2021/12/15 02:50:51;;;;;;;22.83;20.27;;;;;;;;;;5057900;28;24557;-58
2021/12/15 02:53:17;;;;;;;22.23;19.63;;;;;;;;;;5052888;28;24975;-56
2021/12/15 02:55:42;;;;;;;22.87;19.73;;;;;;;;;;5054755;28;24407;-55
2021/12/15 02:58:08;;;;;;;25.70;21.85;;;;;;;;;;5053035;28;24975;-56
2021/12/15 03:00:59;;;;;;;23.05;20.30;;;;;;;;;;5055199;28;24414;-56
2021/12/15 03:05:56;;;;;;;20.60;18.10;;;;;;;;;;5062768;28;24414;-55
2021/12/15 03:08:29;;;;;;;30.40;24.30;;;;;;;;;;5053776;28;25293;-56
2021/12/15 03:16:24;;;;;;;21.15;18.08;;;;;;;;;;5056822;28;24833;-56
2021/12/15 03:18:49;;;;;;;20.47;17.33;;;;;;;;;;5060493;28;24956;-56
2021/12/15 03:21:16;;;;;;;24.00;19.53;;;;;;;;;;5053175;28;24433;-56
2021/12/15 03:23:52;;;;;;;25.75;22.15;;;;;;;;;;5048111;28;24449;-56
2021/12/15 03:26:21;;;;;;;21.08;17.48;;;;;;;;;;5053201;28;24510;-56
2021/12/15 03:39:26;;;;;;;19.73;17.05;;;;;;;;;;5053504;28;24426;-56
2021/12/15 03:41:58;;;;;;;20.60;18.33;;;;;;;;;;5056259;28;24491;-55
2021/12/15 03:44:23;;;;;;;21.02;18.33;;;;;;;;;;5053336;28;24415;-55
2021/12/15 03:46:49;;;;;;;19.60;17.17;;;;;;;;;;5053253;28;25118;-55
2021/12/15 03:49:14;;;;;;;19.40;17.27;;;;;;;;;;5046683;28;24586;-55
2021/12/15 03:51:39;;;;;;;19.93;17.03;;;;;;;;;;5059300;28;24454;-58
2021/12/15 03:54:05;;;;;;;18.63;16.63;;;;;;;;;;5057152;28;24965;-57
2021/12/15 03:56:30;;;;;;;20.05;16.90;;;;;;;;;;5063509;28;24507;-57
2021/12/15 03:58:57;;;;;;;18.50;16.60;;;;;;;;;;5051962;28;24856;-57
2021/12/15 04:01:23;;;;;;;18.20;16.20;;;;;;;;;;5060177;28;24422;-58
2021/12/15 04:03:50;;;;;;;18.42;16.20;;;;;;;;;;5060261;28;24514;-55
2021/12/15 04:06:18;;;;;;;20.60;17.60;;;;;;;;;;5060336;28;24414;-55
2021/12/15 04:08:43;;;;;;;19.55;17.30;;;;;;;;;;5062842;28;25007;-55
2021/12/15 04:11:10;;;;;;;20.70;18.17;;;;;;;;;;5046207;28;24407;-55
2021/12/15 04:13:35;;;;;;;19.73;17.30;;;;;;;;;;5055028;28;24406;-58
2021/12/15 04:16:06;;;;;;;21.35;18.17;;;;;;;;;;5054126;28;24812;-57
2021/12/15 04:18:32;;;;;;;20.15;17.95;;;;;;;;;;5054320;28;24494;-58
2021/12/15 04:20:57;;;;;;;20.77;18.57;;;;;;;;;;5050470;28;24568;-56
2021/12/15 04:23:22;;;;;;;26.92;22.30;;;;;;;;;;5048663;28;24426;-56
2021/12/15 04:25:54;;;;;;;24.70;21.47;;;;;;;;;;5055141;28;24415;-57
2021/12/15 04:28:25;;;;;;;22.17;19.77;;;;;;;;;;5050858;28;24411;-57
2021/12/15 04:30:52;;;;;;;20.52;18.40;;;;;;;;;;5053462;28;24702;-57
2021/12/15 04:33:26;;;;;;;20.58;18.35;;;;;;;;;;5059891;28;24413;-57
2021/12/15 04:35:54;;;;;;;19.40;17.30;;;;;;;;;;5056331;28;24426;-56
2021/12/15 04:38:19;;;;;;;21.63;18.65;;;;;;;;;;5059146;28;24496;-56
2021/12/15 04:40:45;;;;;;;21.13;18.27;;;;;;;;;;5063192;28;24823;-57
2021/12/15 04:43:11;;;;;;;22.60;19.10;;;;;;;;;;5055829;28;24815;-58
2021/12/15 04:45:36;;;;;;;21.33;18.70;;;;;;;;;;5056876;28;24761;-57
2021/12/15 04:48:02;;;;;;;22.48;19.17;;;;;;;;;;5061609;28;24415;-57
2021/12/15 04:50:28;;;;;;;21.00;17.80;;;;;;;;;;5062733;28;24450;-57
2021/12/15 04:52:54;;;;;;;21.65;19.20;;;;;;;;;;5059535;28;24423;-56
2021/12/15 04:55:21;;;;;;;21.87;18.10;;;;;;;;;;5058074;28;24418;-59
2021/12/15 04:57:46;;;;;;;21.48;19.17;;;;;;;;;;5060862;28;24468;-56
2021/12/15 05:00:14;;;;;;;20.40;18.30;;;;;;;;;;5061419;28;24418;-57
2021/12/15 05:02:39;;;;;;;19.35;16.95;;;;;;;;;;5059776;28;24434;-56
2021/12/15 05:05:05;;;;;;;20.20;18.00;;;;;;;;;;5050941;28;24776;-56
2021/12/15 05:07:30;;;;;;;20.13;17.50;;;;;;;;;;5051955;28;24480;-57
2021/12/15 05:09:55;;;;;;;18.57;16.17;;;;;;;;;;5056752;28;24407;-57
2021/12/15 05:12:21;;;;;;;18.53;16.53;;;;;;;;;;5059219;28;24469;-57
2021/12/15 05:14:46;;;;;;;17.23;15.30;;;;;;;;;;5052964;28;24476;-57
2021/12/15 05:17:11;;;;;;;18.43;16.53;;;;;;;;;;5050509;28;24523;-56
2021/12/15 05:19:37;;;;;;;17.90;16.00;;;;;;;;;;5061812;28;24496;-57
2021/12/15 05:22:04;;;;;;;17.07;14.77;;;;;;;;;;5055209;28;24501;-57
2021/12/15 05:26:56;;;;;;;11.85;10.45;;;;;;;;;;5059720;28;24465;-56
2021/12/15 05:29:21;;;;;;;11.15;10.05;;;;;;;;;;5053754;28;24415;-57
2021/12/15 05:31:47;;;;;;;10.52;9.43;;;;;;;;;;5056040;28;24552;-57
2021/12/15 05:34:12;;;;;;;9.77;8.77;;;;;;;;;;5054858;28;24470;-57
2021/12/15 05:36:38;;;;;;;8.83;7.93;;;;;;;;;;5048079;28;24411;-57
2021/12/15 05:39:06;;;;;;;9.00;8.10;;;;;;;;;;5059071;28;24425;-57
2021/12/15 05:41:31;;;;;;;10.60;9.50;;;;;;;;;;5057092;28;24438;-57
2021/12/15 05:43:56;;;;;;;10.47;9.00;;;;;;;;;;5050025;28;24421;-58
2021/12/15 05:46:21;;;;;;;10.90;9.53;;;;;;;;;;5048538;28;24802;-57
2021/12/15 05:48:46;;;;;;;10.90;9.80;;;;;;;;;;5055979;28;24415;-57
2021/12/15 05:51:11;;;;;;;11.47;10.37;;;;;;;;;;5057310;28;24414;-57
2021/12/15 05:53:37;;;;;;;11.87;9.93;;;;;;;;;;5056785;28;24495;-57
2021/12/15 05:56:02;;;;;;;10.20;9.20;;;;;;;;;;5056855;28;25033;-58
2021/12/15 05:58:28;;;;;;;11.03;9.80;;;;;;;;;;5055343;28;24514;-57
2021/12/15 06:00:53;;;;;;;11.73;10.40;;;;;;;;;;5055661;28;25009;-57
2021/12/15 06:03:19;;;;;;;11.57;10.38;;;;;;;;;;5058388;28;24522;-57
2021/12/15 06:05:44;;;;;;;10.20;9.20;;;;;;;;;;5056016;28;24413;-57
2021/12/15 06:08:09;;;;;;;13.20;11.77;;;;;;;;;;5056076;28;24472;-57
2021/12/15 06:10:36;;;;;;;13.50;11.30;;;;;;;;;;5048361;28;25377;-57
2021/12/15 06:13:02;;;;;;;12.68;11.32;;;;;;;;;;5049347;28;24427;-57
2021/12/15 06:15:29;;;;;;;16.98;15.23;;;;;;;;;;5057180;28;25975;-57
2021/12/15 06:17:57;;;;;;;13.80;12.40;;;;;;;;;;5056978;28;24500;-57
2021/12/15 06:20:23;;;;;;;15.70;14.10;;;;;;;;;;5060390;28;25122;-57
2021/12/15 06:22:48;;;;;;;17.10;15.30;;;;;;;;;;5060259;28;24553;-57
2021/12/15 06:25:14;;;;;;;12.70;11.40;;;;;;;;;;5053651;28;24454;-57
2021/12/15 06:27:40;;;;;;;13.47;12.07;;;;;;;;;;5059894;28;24391;-57
2021/12/15 06:30:06;;;;;;;13.07;11.70;;;;;;;;;;5060516;28;24398;-57
2021/12/15 06:32:31;;;;;;;13.40;12.00;;;;;;;;;;5064095;28;24414;-57
2021/12/15 06:34:56;;;;;;;12.30;10.90;;;;;;;;;;5062511;28;24430;-57
2021/12/15 06:37:22;;;;;;;11.27;10.02;;;;;;;;;;5059785;28;24510;-57
2021/12/15 06:39:47;;;;;;;12.68;10.88;;;;;;;;;;5062653;28;24445;-57
2021/12/15 06:42:12;;;;;;;11.40;10.30;;;;;;;;;;5066024;28;24480;-57
2021/12/15 06:44:39;;;;;;;11.80;10.53;;;;;;;;;;5066349;28;24426;-57
2021/12/15 06:47:40;;;;;;;11.75;10.55;;;;;;;;;;5061681;28;24436;-57
2021/12/15 06:58:17;;;;;;;11.30;10.00;;;;;;;;;;5057338;28;24622;-58
2021/12/15 07:00:47;;;;;;;11.97;10.37;;;;;;;;;;5048366;28;24506;-57
2021/12/15 07:03:13;;;;;;;11.53;10.30;;;;;;;;;;5064038;28;24419;-57
2021/12/15 07:05:39;;;;;;;11.50;10.32;;;;;;;;;;5064280;28;24418;-57
2021/12/15 07:08:05;;;;;;;11.75;10.23;;;;;;;;;;5049733;28;24423;-57
2021/12/15 07:10:31;;;;;;;9.70;8.70;;;;;;;;;;5061156;28;24538;-57
2021/12/15 07:12:57;;;;;;;8.90;8.07;;;;;;;;;;5052516;28;24469;-57
2021/12/15 07:15:22;;;;;;;9.63;8.63;;;;;;;;;;5048661;28;24431;-58
2021/12/15 07:17:50;;;;;;;9.77;8.80;;;;;;;;;;5060258;28;24598;-57
2021/12/15 07:20:32;;;;;;;10.23;9.23;;;;;;;;;;5058114;28;24450;-58
2021/12/15 07:22:59;;;;;;;10.50;9.40;;;;;;;;;;5047381;28;24947;-57
2021/12/15 07:25:24;;;;;;;9.90;8.93;;;;;;;;;;5054593;28;24834;-57
2021/12/15 07:27:49;;;;;;;9.70;8.70;;;;;;;;;;5062443;28;24984;-57
2021/12/15 07:30:15;;;;;;;9.33;8.43;;;;;;;;;;5062848;28;24466;-58
2021/12/15 07:32:41;;;;;;;10.03;9.03;;;;;;;;;;5062905;28;26070;-58
2021/12/15 07:35:07;;;;;;;9.90;8.90;;;;;;;;;;5050908;28;24482;-57
2021/12/15 07:37:32;;;;;;;11.85;10.57;;;;;;;;;;5056707;28;24975;-55
2021/12/15 07:39:59;;;;;;;10.30;9.20;;;;;;;;;;5060774;28;24422;-58
2021/12/15 07:42:33;;;;;;;10.10;9.10;;;;;;;;;;5064860;28;25045;-58
2021/12/15 07:44:59;;;;;;;11.70;9.60;;;;;;;;;;5062876;28;24506;-58
2021/12/15 07:47:24;;;;;;;9.10;8.20;;;;;;;;;;5059659;28;24493;-58
2021/12/15 07:49:49;;;;;;;11.40;10.10;;;;;;;;;;5061738;28;24966;-58
2021/12/15 07:52:14;;;;;;;8.90;7.43;;;;;;;;;;5058537;28;24426;-57
2021/12/15 07:54:40;;;;;;;9.48;8.50;;;;;;;;;;5055415;28;24408;-58
2021/12/15 07:57:09;;;;;;;8.52;7.63;;;;;;;;;;5041775;28;24423;-58
2021/12/15 07:59:35;;;;;;;9.30;8.40;;;;;;;;;;5045266;28;24411;-57
2021/12/15 08:02:00;;;;;;;9.87;8.87;;;;;;;;;;5060886;28;24437;-57
2021/12/15 08:04:25;;;;;;;9.00;8.10;;;;;;;;;;5058840;28;24398;-58
2021/12/15 08:06:51;;;;;;;9.20;8.20;;;;;;;;;;5057571;28;24972;-59
2021/12/15 08:09:16;;;;;;;9.38;8.38;;;;;;;;;;5062850;28;24481;-57
2021/12/15 08:11:41;;;;;;;9.68;8.68;;;;;;;;;;5045043;28;24948;-57
2021/12/15 08:14:07;;;;;;;9.40;8.20;;;;;;;;;;5052740;28;24530;-57
2021/12/15 08:16:33;;;;;;;9.52;8.52;;;;;;;;;;5056462;28;25056;-58
2021/12/15 08:18:58;;;;;;;8.93;8.03;;;;;;;;;;5059394;28;24422;-58
2021/12/15 08:21:23;;;;;;;9.00;8.10;;;;;;;;;;5057777;28;25011;-59
2021/12/15 08:23:48;;;;;;;9.93;8.90;;;;;;;;;;5063837;28;24773;-58
2021/12/15 08:26:13;;;;;;;9.82;8.82;;;;;;;;;;5060937;28;24745;-58
2021/12/15 08:28:39;;;;;;;9.57;8.40;;;;;;;;;;5054063;28;24472;-58
2021/12/15 08:31:05;;;;;;;9.68;8.68;;;;;;;;;;5038335;28;24476;-58
2021/12/15 08:33:30;;;;;;;9.98;8.07;;;;;;;;;;5043549;28;24436;-58
2021/12/15 08:35:58;;;;;;;9.70;8.33;;;;;;;;;;5044387;28;24399;-58
2021/12/15 08:38:25;;;;;;;9.85;8.85;;;;;;;;;;5055179;28;24786;-58
2021/12/15 08:40:51;;;;;;;10.82;9.73;;;;;;;;;;5044635;28;24420;-59
2021/12/15 08:43:18;;;;;;;11.52;10.00;;;;;;;;;;5039672;28;24816;-58
2021/12/15 08:45:48;;;;;;;9.82;8.60;;;;;;;;;;5041994;28;24391;-58
2021/12/15 08:48:13;;;;;;;9.85;8.85;;;;;;;;;;5059356;28;24841;-58
2021/12/15 08:50:40;;;;;;;9.20;8.20;;;;;;;;;;5062782;28;25003;-58
2021/12/15 08:53:09;;;;;;;8.93;8.00;;;;;;;;;;5059190;28;24508;-58
2021/12/15 08:55:34;;;;;;;9.13;7.85;;;;;;;;;;5058026;28;24431;-58
2021/12/15 08:58:04;;;;;;;7.80;7.00;;;;;;;;;;5059749;28;24510;-58
2021/12/15 09:00:30;;;;;;;8.90;7.57;;;;;;;;;;5056309;28;24504;-58
2021/12/15 09:02:55;;;;;;;9.10;8.20;;;;;;;;;;5041925;28;24459;-58
2021/12/15 09:05:22;;;;;;;8.50;7.70;;;;;;;;;;5055383;28;24761;-58
2021/12/15 09:07:48;;;;;;;9.05;8.15;;;;;;;;;;5061715;28;24422;-57
2021/12/15 09:10:14;;;;;;;9.80;8.90;;;;;;;;;;5049737;28;24758;-57
2021/12/15 09:12:39;;;;;;;10.10;8.30;;;;;;;;;;5059480;28;24408;-58
2021/12/15 09:15:05;;;;;;;9.55;8.55;;;;;;;;;;5061345;28;24387;-58
2021/12/15 09:17:30;;;;;;;10.20;9.20;;;;;;;;;;5063016;28;24449;-58
2021/12/15 09:19:55;;;;;;;9.20;8.30;;;;;;;;;;5056699;28;24397;-57
2021/12/15 09:22:20;;;;;;;8.47;7.57;;;;;;;;;;5040455;28;24423;-57
2021/12/15 09:24:45;;;;;;;10.27;9.27;;;;;;;;;;5043702;28;25017;-56
2021/12/15 09:27:10;;;;;;;9.50;8.60;;;;;;;;;;5040497;28;24395;-57
2021/12/15 09:29:36;;;;;;;10.25;9.25;;;;;;;;;;5041383;28;24786;-56
2021/12/15 09:32:01;;;;;;;8.70;7.80;;;;;;;;;;5037556;28;25029;-57
2021/12/15 09:34:26;;;;;;;9.70;8.70;;;;;;;;;;5039310;28;24423;-58
2021/12/15 09:36:53;;;;;;;9.98;8.82;;;;;;;;;;5043194;28;24387;-58
2021/12/15 09:39:20;;;;;;;9.20;8.30;;;;;;;;;;5040709;28;24980;-58
2021/12/15 09:41:45;;;;;;;7.80;7.00;;;;;;;;;;5049082;28;24780;-58
2021/12/15 09:44:13;;;;;;;9.98;8.98;;;;;;;;;;5041686;28;24418;-58
2021/12/15 10:03:03;;;;;;;7.20;6.50;;;;;;;;;;5042646;28;24426;-58
2021/12/15 10:05:50;;;;;;;6.30;5.70;;;;;;;;;;5038249;28;24395;-58
2021/12/15 10:11:15;;;;;;;7.63;6.93;;;;;;;;;;5060984;28;24460;-57
2021/12/15 10:19:24;;;;;;;8.10;7.40;;;;;;;;;;5056656;28;25030;-58
2021/12/15 10:21:56;;;;;;;6.20;5.68;;;;;;;;;;5056125;28;24437;-58
2021/12/15 10:24:34;;;;;;;6.30;5.70;;;;;;;;;;5062620;28;24902;-58
2021/12/15 10:27:01;;;;;;;6.25;5.75;;;;;;;;;;5062487;28;24367;-58
2021/12/15 10:29:26;;;;;;;6.38;5.78;;;;;;;;;;5057179;28;24422;-58
2021/12/15 10:32:12;;;;;;;6.10;5.60;;;;;;;;;;5056357;28;24395;-58
2021/12/15 10:34:39;;;;;;;6.35;5.75;;;;;;;;;;5059004;28;25097;-57
2021/12/15 10:37:04;;;;;;;6.20;5.60;;;;;;;;;;5060474;28;24920;-57
2021/12/15 10:39:29;;;;;;;6.47;5.87;;;;;;;;;;5054497;28;24434;-57
2021/12/15 10:41:55;;;;;;;5.80;5.30;;;;;;;;;;5036829;28;24416;-59
2021/12/15 10:44:23;;;;;;;4.80;4.30;;;;;;;;;;5039834;28;24410;-57
2021/12/15 10:46:51;;;;;;;4.40;4.00;;;;;;;;;;5040558;28;24530;-58
2021/12/15 10:49:24;;;;;;;4.38;3.97;;;;;;;;;;5048707;28;24414;-58
2021/12/15 10:51:51;;;;;;;4.90;4.50;;;;;;;;;;5062152;28;24411;-59
2021/12/15 10:54:31;;;;;;;4.00;3.70;;;;;;;;;;5056802;28;24432;-58
2021/12/15 10:56:59;;;;;;;4.68;4.28;;;;;;;;;;5058227;28;24548;-59
2021/12/15 10:59:26;;;;;;;4.90;4.40;;;;;;;;;;5056410;28;24602;-59
2021/12/15 11:01:57;;;;;;;4.88;4.40;;;;;;;;;;5040807;28;24431;-58
2021/12/15 11:04:27;;;;;;;4.10;3.80;;;;;;;;;;5042160;28;24396;-59
2021/12/15 11:07:08;;;;;;;5.20;4.70;;;;;;;;;;5042157;28;24836;-57
2021/12/15 11:09:39;;;;;;;4.55;4.15;;;;;;;;;;5036744;28;24478;-57
2021/12/15 11:12:04;;;;;;;5.40;4.90;;;;;;;;;;5054790;28;24433;-57
2021/12/15 11:14:31;;;;;;;4.50;4.10;;;;;;;;;;5061835;28;24399;-58
2021/12/15 11:17:11;;;;;;;5.07;4.57;;;;;;;;;;5060212;28;24379;-57
2021/12/15 11:19:47;;;;;;;5.18;4.78;;;;;;;;;;5059587;28;24414;-58
2021/12/15 11:22:33;;;;;;;4.38;3.97;;;;;;;;;;5044445;28;24453;-58
2021/12/15 11:24:58;;;;;;;4.20;3.80;;;;;;;;;;5045181;28;24404;-58
2021/12/15 11:27:24;;;;;;;6.35;3.90;;;;;;;;;;5043288;28;24928;-58
2021/12/15 11:29:49;;;;;;;4.57;4.18;;;;;;;;;;5056627;28;24507;-58
2021/12/15 11:32:33;;;;;;;4.27;3.87;;;;;;;;;;5062931;28;24394;-59
2021/12/15 11:35:09;;;;;;;4.72;4.22;;;;;;;;;;5054128;28;24852;-58
2021/12/15 11:37:45;;;;;;;4.20;3.90;;;;;;;;;;5045009;28;25269;-58
2021/12/15 11:40:10;;;;;;;5.40;4.90;;;;;;;;;;5041378;28;24403;-58
2021/12/15 11:42:42;;;;;;;4.70;4.30;;;;;;;;;;5038997;28;24514;-58
2021/12/15 11:45:09;;;;;;;4.20;3.80;;;;;;;;;;5044947;28;24415;-58
2021/12/15 11:47:36;;;;;;;5.50;4.80;;;;;;;;;;5045005;28;24408;-58
2021/12/15 11:50:13;;;;;;;4.90;4.50;;;;;;;;;;5059023;28;24414;-58
2021/12/15 11:52:43;;;;;;;5.00;4.50;;;;;;;;;;5061132;28;24414;-59
2021/12/15 11:55:41;;;;;;;5.60;5.10;;;;;;;;;;5055270;28;24529;-58
2021/12/15 11:58:06;;;;;;;4.35;4.05;;;;;;;;;;5019285;28;24437;-59
2021/12/15 12:00:31;;;;;;;5.20;4.70;;;;;;;;;;5064832;28;24405;-58
2021/12/15 12:02:57;;;;;;;11.33;8.50;;;;;;;;;;5060900;28;24423;-58
2021/12/15 12:05:25;;;;;;;24.10;12.90;;;;;;;;;;5059669;28;24442;-58
2021/12/15 12:08:01;;;;;;;12.75;8.55;;;;;;;;;;5040901;28;24845;-58
2021/12/15 12:10:31;;;;;;;11.02;7.75;;;;;;;;;;5053339;28;24403;-57
2021/12/15 12:13:05;;;;;;;11.82;8.52;;;;;;;;;;5062618;28;24409;-59
2021/12/15 12:15:32;;;;;;;10.20;8.93;;;;;;;;;;5061884;28;24962;-59
2021/12/15 12:18:00;;;;;;;11.13;9.93;;;;;;;;;;5041892;28;24419;-57
2021/12/15 12:20:30;;;;;;;5.53;5.03;;;;;;;;;;5042622;28;25063;-57
2021/12/15 12:22:57;;;;;;;5.70;5.20;;;;;;;;;;5053816;28;24422;-57
2021/12/15 12:25:24;;;;;;;6.10;5.50;;;;;;;;;;5063804;28;24414;-57
2021/12/15 12:27:50;;;;;;;6.97;6.28;;;;;;;;;;5050519;28;24412;-57
2021/12/15 12:30:18;;;;;;;6.90;6.30;;;;;;;;;;5038160;28;24391;-57
2021/12/15 12:32:44;;;;;;;6.28;5.70;;;;;;;;;;5042305;28;24411;-57
2021/12/15 12:35:10;;;;;;;7.00;6.30;;;;;;;;;;5049724;28;24501;-59
2021/12/15 12:37:36;;;;;;;6.20;5.07;;;;;;;;;;5058051;28;24499;-57
2021/12/15 12:40:15;;;;;;;6.88;6.28;;;;;;;;;;5038437;28;24405;-57
2021/12/15 12:42:43;;;;;;;7.18;6.50;;;;;;;;;;5048599;28;24680;-58
2021/12/15 12:45:13;;;;;;;6.70;6.10;;;;;;;;;;5060375;28;24423;-57
2021/12/15 12:47:46;;;;;;;7.30;6.60;;;;;;;;;;5061538;28;24414;-57
2021/12/15 12:50:38;;;;;;;7.68;6.97;;;;;;;;;;5061125;28;22164;-57
2021/12/15 12:57:58;;;;;;;7.07;6.47;;;;;;;;;;5022469;28;24531;-58
2021/12/15 13:01:35;;;;;;;6.40;5.85;;;;;;;;;;5043322;28;24440;-57
2021/12/15 13:04:07;;;;;;;6.90;6.20;;;;;;;;;;5041421;28;24530;-57
2021/12/15 13:06:38;;;;;;;6.22;5.60;;;;;;;;;;5037571;28;24395;-57
2021/12/15 13:09:05;;;;;;;6.25;5.65;;;;;;;;;;5042295;28;24773;-57
2021/12/15 13:11:35;;;;;;;6.65;6.05;;;;;;;;;;5052556;28;24446;-57
2021/12/15 13:14:03;;;;;;;6.40;5.80;;;;;;;;;;5041370;28;24412;-57
2021/12/15 13:16:32;;;;;;;7.20;6.50;;;;;;;;;;5042975;28;25024;-58
2021/12/15 13:18:59;;;;;;;6.20;5.60;;;;;;;;;;5039388;28;24402;-58
2021/12/15 13:21:44;;;;;;;6.20;5.60;;;;;;;;;;5056541;28;24403;-57
2021/12/15 13:28:40;;;;;;;6.47;5.95;;;;;;;;;;5063136;28;24483;-57
2021/12/15 13:29:57;;;;;;;7.05;6.45;;;;;;;;;;5057532;28;24414;-57
2021/12/15 13:32:26;;;;;;;6.03;5.50;;;;;;;;;;5059173;28;24395;-58
2021/12/15 13:34:51;;;;;;;6.95;5.75;;;;;;;;;;5062769;28;24429;-57
2021/12/15 13:37:35;;;;;;;6.70;6.00;;;;;;;;;;5060691;28;25045;-57
2021/12/15 13:40:00;;;;;;;6.30;5.80;;;;;;;;;;5059291;28;24407;-58
2021/12/15 13:42:52;;;;;;;6.53;5.93;;;;;;;;;;5053035;28;24790;-58
2021/12/15 13:45:31;;;;;;;6.60;5.05;;;;;;;;;;5042549;28;24909;-59
2021/12/15 13:47:56;;;;;;;6.70;6.00;;;;;;;;;;5041093;28;24476;-59
2021/12/15 13:50:23;;;;;;;5.90;5.32;;;;;;;;;;5042398;28;24515;-57
2021/12/15 13:52:59;;;;;;;6.20;5.60;;;;;;;;;;5057863;28;24437;-57
2021/12/15 13:55:25;;;;;;;6.30;5.70;;;;;;;;;;5056477;28;24422;-58
2021/12/15 13:57:56;;;;;;;6.05;5.47;;;;;;;;;;5057238;28;24452;-58
2021/12/15 14:00:27;;;;;;;5.70;5.20;;;;;;;;;;5062433;28;24403;-57
2021/12/15 14:02:54;;;;;;;5.63;5.13;;;;;;;;;;5062371;28;24922;-57
2021/12/15 14:05:22;;;;;;;5.30;4.80;;;;;;;;;;5044259;28;24414;-58
2021/12/15 14:07:52;;;;;;;6.38;5.78;;;;;;;;;;5055951;28;24506;-58
2021/12/15 14:10:18;;;;;;;5.80;5.20;;;;;;;;;;5040223;28;24516;-58
2021/12/15 14:12:47;;;;;;;5.70;5.20;;;;;;;;;;5042212;28;25182;-58
2021/12/15 14:15:13;;;;;;;5.90;5.40;;;;;;;;;;5040401;28;24406;-58
2021/12/15 14:17:38;;;;;;;5.22;4.72;;;;;;;;;;5053014;28;24415;-58
2021/12/15 14:20:14;;;;;;;5.57;5.07;;;;;;;;;;5045390;28;24996;-58
2021/12/15 14:22:41;;;;;;;5.20;4.80;;;;;;;;;;5038351;28;24438;-58
2021/12/15 14:25:06;;;;;;;5.20;4.80;;;;;;;;;;5046919;28;24395;-58
2021/12/15 14:27:31;;;;;;;5.03;4.53;;;;;;;;;;5061780;28;24413;-58
2021/12/15 14:29:56;;;;;;;9.35;8.45;;;;;;;;;;5059880;28;24827;-60
2021/12/15 14:32:24;;;;;;;10.10;9.00;;;;;;;;;;5057978;28;24900;-58
2021/12/15 14:34:49;;;;;;;10.60;7.50;;;;;;;;;;5058259;28;24437;-58
2021/12/15 14:37:16;;;;;;;31.35;20.90;;;;;;;;;;5058468;28;24430;-59
2021/12/15 14:39:42;;;;;;;43.00;26.08;;;;;;;;;;5041859;28;24415;-58
2021/12/15 14:42:10;;;;;;;26.65;19.55;;;;;;;;;;5057836;28;24418;-58
2021/12/15 14:44:40;;;;;;;23.90;17.67;;;;;;;;;;5058203;28;24411;-59
2021/12/15 14:47:12;;;;;;;11.18;9.38;;;;;;;;;;5056820;28;24379;-58
2021/12/15 14:49:40;;;;;;;21.65;15.75;;;;;;;;;;5056571;28;24553;-57
2021/12/15 14:52:07;;;;;;;10.90;8.90;;;;;;;;;;5044157;28;24485;-58
2021/12/15 14:54:33;;;;;;;13.70;10.48;;;;;;;;;;5056447;28;24781;-58
2021/12/15 14:57:24;;;;;;;10.70;8.65;;;;;;;;;;5064248;28;24966;-59
2021/12/15 15:00:00;;;;;;;6.80;6.10;;;;;;;;;;5057970;28;24411;-59
2021/12/15 15:02:31;;;;;;;7.20;5.70;;;;;;;;;;5061111;28;25033;-58
2021/12/15 15:05:03;;;;;;;5.40;4.90;;;;;;;;;;5061957;28;24967;-59
2021/12/15 15:07:31;;;;;;;4.97;4.47;;;;;;;;;;5043810;28;24415;-57
2021/12/15 15:09:57;;;;;;;4.60;4.10;;;;;;;;;;5052780;28;24411;-57
2021/12/15 15:12:24;;;;;;;4.60;4.20;;;;;;;;;;5056287;28;24422;-57
2021/12/15 15:14:55;;;;;;;5.00;4.50;;;;;;;;;;5045350;28;24408;-57
2021/12/15 15:17:29;;;;;;;4.95;4.55;;;;;;;;;;5052593;28;24901;-58
2021/12/15 15:19:56;;;;;;;6.57;5.88;;;;;;;;;;5065666;28;24429;-57
2021/12/15 15:22:23;;;;;;;4.97;4.50;;;;;;;;;;5056268;28;24679;-57
2021/12/15 15:24:48;;;;;;;4.30;4.00;;;;;;;;;;5041905;28;24498;-57
2021/12/15 15:27:15;;;;;;;4.93;4.53;;;;;;;;;;5043438;28;24834;-57
2021/12/15 15:29:42;;;;;;;4.90;4.35;;;;;;;;;;5045152;28;24419;-57
2021/12/15 15:32:12;;;;;;;5.03;4.53;;;;;;;;;;5046538;28;24522;-57
2021/12/15 15:34:38;;;;;;;4.25;3.95;;;;;;;;;;5060446;28;24518;-57
2021/12/15 15:37:17;;;;;;;4.70;4.30;;;;;;;;;;5055291;28;24897;-57
2021/12/15 15:39:42;;;;;;;5.35;4.70;;;;;;;;;;5042434;28;24992;-57
2021/12/15 15:42:17;;;;;;;5.40;4.90;;;;;;;;;;5056387;28;24427;-58
2021/12/15 15:44:42;;;;;;;5.00;4.60;;;;;;;;;;5064688;28;24507;-58
2021/12/15 15:47:13;;;;;;;5.30;4.80;;;;;;;;;;5048787;28;24532;-57
2021/12/15 15:49:46;;;;;;;5.20;4.70;;;;;;;;;;5044368;28;24441;-57
2021/12/15 15:52:11;;;;;;;4.93;4.22;;;;;;;;;;5057737;28;24454;-56